createdAt,value
2018-11-05T00:01:43.743Z,7.90
2018-11-05T00:04:25.489Z,7.78
2018-11-05T00:07:06.764Z,7.72
2018-11-05T00:09:48.054Z,7.72
2018-11-05T00:12:29.337Z,7.74
2018-11-05T00:15:10.801Z,7.72
2018-11-05T00:17:52.203Z,7.72
2018-11-05T00:20:33.693Z,7.70
2018-11-05T00:23:15.078Z,7.68
2018-11-05T00:25:56.536Z,7.60
2018-11-05T00:28:38.108Z,7.65
2018-11-05T00:31:19.684Z,7.56
2018-11-05T00:34:01.079Z,7.48
2018-11-05T00:36:42.806Z,7.55
2018-11-05T00:39:24.030Z,7.43
2018-11-05T00:42:05.994Z,7.33
2018-11-05T00:44:47.039Z,7.33
2018-11-05T00:47:28.389Z,7.39
2018-11-05T00:50:11.801Z,7.40
2018-11-05T00:52:53.318Z,7.43
2018-11-05T00:55:34.935Z,7.41
2018-11-05T00:58:16.514Z,7.45
2018-11-05T01:00:57.620Z,7.44
2018-11-05T01:03:39.492Z,7.43
2018-11-05T01:06:23.115Z,7.43
2018-11-05T01:09:05.860Z,7.44
2018-11-05T01:11:47.533Z,7.47
2018-11-05T01:14:29.410Z,7.49
2018-11-05T01:17:10.605Z,7.50
2018-11-05T01:19:52.108Z,7.54
2018-11-05T01:22:33.551Z,7.52
2018-11-05T01:25:15.349Z,7.53
2018-11-05T01:27:57.657Z,7.56
2018-11-05T01:30:38.757Z,7.56
2018-11-05T01:33:20.329Z,7.54
2018-11-05T01:36:01.960Z,7.56
2018-11-05T01:38:43.104Z,7.60
2018-11-05T01:41:24.610Z,7.63
2018-11-05T01:44:06.325Z,7.67
2018-11-05T01:46:47.525Z,7.70
2018-11-05T01:49:28.888Z,7.66
2018-11-05T01:52:10.700Z,7.71
2018-11-05T01:54:51.905Z,7.66
2018-11-05T01:57:33.538Z,7.64
2018-11-05T02:00:16.204Z,7.58
2018-11-05T02:02:57.309Z,7.54
2018-11-05T02:05:38.649Z,7.52
2018-11-05T02:08:20.169Z,7.49
2018-11-05T02:11:01.933Z,7.53
2018-11-05T02:13:43.172Z,7.56
2018-11-05T02:16:24.341Z,7.57
2018-11-05T02:19:06.139Z,7.53
2018-11-05T02:21:47.203Z,7.56
2018-11-05T02:24:28.659Z,7.56
2018-11-05T02:27:10.336Z,7.54
2018-11-05T02:29:51.470Z,7.50
2018-11-05T02:32:32.803Z,7.50
2018-11-05T02:35:15.507Z,7.55
2018-11-05T02:37:56.578Z,7.50
2018-11-05T02:40:38.061Z,7.54
2018-11-05T02:43:20.010Z,7.50
2018-11-05T02:46:01.161Z,7.52
2018-11-05T02:48:42.683Z,7.54
2018-11-05T02:51:24.568Z,7.55
2018-11-05T02:54:06.025Z,7.49
2018-11-05T02:56:47.793Z,7.51
2018-11-05T02:59:30.441Z,7.45
2018-11-05T03:02:11.641Z,7.48
2018-11-05T03:04:52.828Z,7.46
2018-11-05T03:07:34.598Z,7.45
2018-11-05T03:10:15.754Z,7.40
2018-11-05T03:12:56.901Z,7.39
2018-11-05T03:15:38.702Z,7.43
2018-11-05T03:18:19.942Z,7.43
2018-11-05T03:21:01.306Z,7.42
2018-11-05T03:23:42.583Z,7.42
2018-11-05T03:26:23.960Z,7.41
2018-11-05T03:29:05.486Z,7.45
2018-11-05T03:31:46.621Z,7.42
2018-11-05T03:34:28.123Z,7.45
2018-11-05T03:37:09.610Z,7.50
2018-11-05T03:39:51.241Z,7.51
2018-11-05T03:42:32.197Z,7.51
2018-11-05T03:45:15.017Z,7.54
2018-11-05T03:47:56.081Z,7.53
2018-11-05T03:50:37.700Z,7.53
2018-11-05T03:53:19.004Z,7.54
2018-11-05T03:56:00.398Z,7.53
2018-11-05T03:58:41.841Z,7.50
2018-11-05T04:01:23.252Z,7.48
2018-11-05T04:04:04.901Z,7.47
2018-11-05T04:06:46.402Z,7.45
2018-11-05T04:09:27.890Z,7.52
2018-11-05T04:12:09.657Z,7.51
2018-11-05T04:14:51.120Z,7.51
2018-11-05T04:17:32.512Z,7.54
2018-11-05T04:20:14.593Z,7.55
2018-11-05T04:22:56.446Z,7.57
2018-11-05T04:25:37.780Z,7.62
2018-11-05T04:28:19.246Z,7.64
2018-11-05T04:31:00.628Z,7.62
2018-11-05T04:33:42.102Z,7.60
2018-11-05T04:36:23.498Z,7.60
2018-11-05T04:39:10.654Z,7.60
2018-11-05T04:41:52.445Z,7.57
2018-11-05T04:44:34.033Z,7.54
2018-11-05T04:47:15.865Z,7.49
2018-11-05T04:49:56.952Z,7.42
2018-11-05T04:52:39.205Z,7.45
2018-11-05T04:55:21.484Z,7.44
2018-11-05T04:58:02.490Z,7.40
2018-11-05T05:00:43.959Z,7.37
2018-11-05T05:03:26.971Z,7.30
2018-11-05T05:06:07.889Z,7.33
2018-11-05T05:08:49.257Z,7.32
2018-11-05T05:11:30.869Z,7.30
2018-11-05T05:14:12.129Z,7.33
2018-11-05T05:16:53.637Z,7.41
2018-11-05T05:19:35.169Z,7.44
2018-11-05T05:22:16.707Z,7.51
2018-11-05T05:24:57.986Z,7.58
2018-11-05T05:27:39.646Z,7.68
2018-11-05T05:30:21.224Z,7.72
2018-11-05T05:33:02.307Z,7.73
2018-11-05T05:35:44.017Z,7.83
2018-11-05T05:38:25.815Z,7.90
2018-11-05T05:41:07.539Z,7.89
2018-11-05T05:43:48.885Z,7.98
2018-11-05T05:46:30.406Z,8.05
2018-11-05T05:49:11.696Z,8.08
2018-11-05T05:51:53.555Z,8.23
2018-11-05T05:54:35.333Z,8.21
2018-11-05T05:57:16.430Z,8.35
2018-11-05T05:59:58.075Z,8.41
2018-11-05T06:02:39.782Z,8.55
2018-11-05T06:05:21.091Z,8.58
2018-11-05T06:08:02.457Z,8.56
2018-11-05T06:10:43.867Z,8.56
2018-11-05T06:13:27.289Z,8.63
2018-11-05T06:16:08.830Z,8.68
2018-11-05T06:18:50.159Z,8.68
2018-11-05T06:21:31.436Z,8.79
2018-11-05T06:24:12.821Z,8.79
2018-11-05T06:26:54.395Z,8.77
2018-11-05T06:29:35.858Z,8.77
2018-11-05T06:32:17.320Z,8.73
2018-11-05T06:34:58.609Z,8.75
2018-11-05T06:37:40.509Z,8.74
2018-11-05T06:40:23.609Z,8.77
2018-11-05T06:43:05.402Z,8.74
2018-11-05T06:45:46.330Z,8.74
2018-11-05T06:48:28.236Z,8.74
2018-11-05T06:51:09.181Z,8.80
2018-11-05T06:53:50.562Z,8.81
2018-11-05T06:56:32.351Z,8.87
2018-11-05T06:59:13.357Z,8.92
2018-11-05T07:01:54.768Z,8.94
2018-11-05T07:04:36.923Z,9.02
2018-11-05T07:07:18.650Z,9.07
2018-11-05T07:10:00.149Z,9.20
2018-11-05T07:12:42.253Z,9.18
2018-11-05T07:15:24.471Z,9.20
2018-11-05T07:18:06.366Z,9.19
2018-11-05T07:20:48.257Z,9.22
2018-11-05T07:23:29.108Z,9.26
2018-11-05T07:26:10.586Z,9.28
2018-11-05T07:28:51.973Z,9.36
2018-11-05T07:31:33.252Z,9.44
2018-11-05T07:34:14.777Z,9.48
2018-11-05T07:36:57.036Z,9.56
2018-11-05T07:39:45.902Z,9.55
2018-11-05T07:42:27.441Z,9.59
2018-11-05T07:45:12.405Z,9.68
2018-11-05T07:47:53.669Z,9.79
2018-11-05T07:50:34.925Z,9.76
2018-11-05T07:53:16.518Z,9.75
2018-11-05T07:55:58.092Z,9.84
2018-11-05T07:58:39.251Z,9.81
2018-11-05T08:01:20.686Z,9.85
2018-11-05T08:04:02.044Z,9.87
2018-11-05T08:06:43.502Z,9.95
2018-11-05T08:09:25.432Z,10.00
2018-11-05T08:12:07.344Z,10.04
2018-11-05T08:14:48.841Z,10.19
2018-11-05T08:17:30.257Z,10.32
2018-11-05T08:20:11.959Z,10.38
2018-11-05T08:22:54.181Z,10.42
2018-11-05T08:25:35.797Z,10.56
2018-11-05T08:28:17.552Z,10.44
2018-11-05T08:30:58.637Z,10.60
2018-11-05T08:33:40.029Z,10.58
2018-11-05T08:36:21.926Z,10.77
2018-11-05T08:39:03.586Z,10.55
2018-11-05T08:41:45.664Z,10.77
2018-11-05T08:44:27.446Z,10.69
2018-11-05T08:47:08.533Z,10.59
2018-11-05T08:49:49.804Z,10.82
2018-11-05T08:52:31.350Z,10.80
2018-11-05T08:55:14.837Z,10.62
2018-11-05T08:57:56.432Z,10.80
2018-11-05T09:00:43.321Z,10.61
2018-11-05T09:03:25.133Z,10.69
2018-11-05T09:06:06.768Z,10.75
2018-11-05T09:08:48.148Z,10.69
2018-11-05T09:11:29.531Z,10.66
2018-11-05T09:14:10.990Z,10.80
2018-11-05T09:16:53.524Z,10.81
2018-11-05T09:19:34.608Z,10.77
2018-11-05T09:22:15.945Z,10.93
2018-11-05T09:24:57.218Z,10.89
2018-11-05T09:27:38.486Z,11.05
2018-11-05T09:30:21.486Z,11.27
2018-11-05T09:33:02.357Z,11.33
2018-11-05T09:35:44.260Z,11.22
2018-11-05T09:38:25.418Z,11.15
2018-11-05T09:41:08.110Z,11.43
2018-11-05T09:43:52.094Z,11.71
2018-11-05T09:46:33.787Z,11.85
2018-11-05T09:49:16.181Z,11.72
2018-11-05T09:51:58.229Z,12.21
2018-11-05T09:54:39.141Z,12.10
2018-11-05T09:57:20.605Z,12.52
2018-11-05T10:00:02.585Z,12.60
2018-11-05T10:02:49.252Z,11.97
2018-11-05T10:05:31.018Z,12.09
2018-11-05T10:08:12.845Z,11.93
2018-11-05T10:10:53.982Z,11.79
2018-11-05T10:13:35.517Z,11.91
2018-11-05T10:16:17.316Z,12.06
2018-11-05T10:18:58.530Z,12.22
2018-11-05T10:21:39.676Z,11.91
2018-11-05T10:24:21.525Z,11.68
2018-11-05T10:27:02.498Z,12.06
2018-11-05T10:29:43.872Z,12.28
2018-11-05T10:32:25.606Z,12.27
2018-11-05T10:35:07.746Z,12.65
2018-11-05T10:37:49.197Z,12.20
2018-11-05T10:40:31.055Z,12.62
2018-11-05T10:43:12.823Z,12.46
2018-11-05T10:45:54.275Z,13.00
2018-11-05T10:48:36.065Z,12.95
2018-11-05T10:51:17.902Z,12.68
2018-11-05T10:53:59.442Z,12.36
2018-11-05T10:56:41.870Z,12.58
2018-11-05T10:59:24.637Z,12.36
2018-11-05T11:02:11.705Z,12.26
2018-11-05T11:04:53.269Z,13.19
2018-11-05T11:07:34.912Z,13.72
2018-11-05T11:10:16.374Z,13.26
2018-11-05T11:12:57.948Z,13.60
2018-11-05T11:15:39.684Z,13.43
2018-11-05T11:18:22.530Z,13.67
2018-11-05T11:21:03.594Z,13.41
2018-11-05T11:23:45.397Z,14.05
2018-11-05T11:26:26.602Z,13.83
2018-11-05T11:29:08.123Z,13.39
2018-11-05T11:31:49.481Z,12.84
2018-11-05T11:34:30.903Z,12.74
2018-11-05T11:37:12.407Z,12.63
2018-11-05T11:39:54.058Z,12.72
2018-11-05T11:42:35.392Z,12.79
2018-11-05T11:45:17.601Z,12.69
2018-11-05T11:47:59.016Z,12.88
2018-11-05T11:50:40.268Z,12.95
2018-11-05T11:53:22.012Z,13.69
2018-11-05T11:56:03.390Z,13.15
2018-11-05T11:58:44.797Z,13.00
2018-11-05T12:01:26.297Z,13.11
2018-11-05T12:04:07.873Z,13.23
2018-11-05T12:06:49.401Z,13.73
2018-11-05T12:09:30.706Z,13.16
2018-11-05T12:12:12.572Z,13.23
2018-11-05T12:14:58.180Z,13.71
2018-11-05T12:17:39.805Z,13.71
2018-11-05T12:20:23.209Z,13.29
2018-11-05T12:23:05.183Z,13.76
2018-11-05T12:25:46.676Z,13.92
2018-11-05T12:28:28.377Z,13.82
2018-11-05T12:31:09.726Z,13.70
2018-11-05T12:33:51.126Z,13.73
2018-11-05T12:36:35.300Z,13.73
2018-11-05T12:39:17.102Z,13.69
2018-11-05T12:41:58.941Z,14.41
2018-11-05T12:44:40.464Z,13.61
2018-11-05T12:47:21.537Z,15.02
2018-11-05T12:50:03.477Z,14.45
2018-11-05T12:52:46.185Z,13.91
2018-11-05T12:55:28.240Z,14.92
2018-11-05T12:58:09.689Z,15.15
2018-11-05T13:00:50.859Z,14.80
2018-11-05T13:03:32.100Z,13.84
2018-11-05T13:06:13.555Z,14.59
2018-11-05T13:08:56.633Z,13.83
2018-11-05T13:11:38.358Z,13.52
2018-11-05T13:14:20.386Z,13.42
2018-11-05T13:17:02.522Z,13.56
2018-11-05T13:19:43.625Z,13.90
2018-11-05T13:22:25.366Z,13.70
2018-11-05T13:25:07.173Z,14.66
2018-11-05T13:27:49.131Z,15.26
2018-11-05T13:30:30.710Z,16.02
2018-11-05T13:33:13.707Z,15.10
2018-11-05T13:35:54.738Z,15.67
2018-11-05T13:38:36.336Z,15.79
2018-11-05T13:41:18.213Z,15.21
2018-11-05T13:44:00.021Z,15.05
2018-11-05T13:46:41.767Z,14.65
2018-11-05T13:49:23.150Z,14.68
2018-11-05T13:52:04.247Z,15.72
2018-11-05T13:54:45.679Z,14.88
2018-11-05T13:57:27.162Z,14.93
2018-11-05T14:00:09.985Z,15.35
2018-11-05T14:02:51.646Z,14.48
2018-11-05T14:05:33.268Z,14.37
2018-11-05T14:08:14.486Z,14.12
2018-11-05T14:10:55.998Z,13.92
2018-11-05T14:13:37.636Z,13.85
2018-11-05T14:16:18.795Z,13.77
2018-11-05T14:19:00.388Z,13.82
2018-11-05T14:21:41.784Z,13.68
2018-11-05T14:24:23.082Z,13.65
2018-11-05T14:27:04.460Z,13.56
2018-11-05T14:29:46.450Z,13.86
2018-11-05T14:32:27.397Z,14.16
2018-11-05T14:35:09.133Z,14.19
2018-11-05T14:37:50.255Z,14.20
2018-11-05T14:40:31.456Z,13.84
2018-11-05T14:43:13.145Z,14.01
2018-11-05T14:45:57.235Z,13.85
2018-11-05T14:48:38.979Z,13.93
2018-11-05T14:51:20.857Z,13.76
2018-11-05T14:54:01.846Z,13.61
2018-11-05T14:56:43.319Z,13.21
2018-11-05T15:01:45.337Z,13.27
2018-11-05T15:04:27.341Z,13.27
2018-11-05T15:07:08.767Z,13.10
2018-11-05T15:09:50.198Z,12.89
2018-11-05T15:12:32.641Z,12.84
2018-11-05T15:15:14.854Z,12.73
2018-11-05T15:17:57.444Z,12.54
2018-11-05T15:20:41.330Z,12.56
2018-11-05T15:23:23.424Z,12.43
2018-11-05T15:26:05.602Z,12.45
2018-11-05T15:28:48.714Z,12.25
2018-11-05T15:31:30.785Z,12.10
2018-11-05T15:34:14.811Z,12.06
2018-11-05T15:36:56.677Z,11.90
2018-11-05T15:39:44.305Z,11.85
2018-11-05T15:42:27.430Z,11.81
2018-11-05T15:45:11.237Z,11.67
2018-11-05T15:47:53.889Z,11.47
2018-11-05T15:50:37.110Z,11.45
2018-11-05T15:53:21.313Z,11.17
2018-11-05T15:56:04.836Z,11.22
2018-11-05T15:58:47.401Z,11.24
2018-11-05T16:01:29.505Z,11.21
2018-11-05T16:04:12.033Z,11.13
2018-11-05T16:06:53.824Z,11.07
2018-11-05T16:09:37.458Z,11.07
2018-11-05T16:12:19.931Z,11.10
2018-11-05T16:15:02.698Z,11.24
2018-11-05T16:17:45.184Z,11.28
2018-11-05T16:20:27.108Z,11.20
2018-11-05T16:23:09.865Z,11.12
2018-11-05T16:25:52.587Z,11.09
2018-11-05T16:28:35.095Z,11.14
2018-11-05T16:31:16.952Z,11.20
2018-11-05T16:33:58.905Z,11.13
2018-11-05T16:36:43.969Z,11.02
2018-11-05T16:39:27.114Z,10.95
2018-11-05T16:42:11.497Z,10.94
2018-11-05T16:44:53.970Z,10.91
2018-11-05T16:47:36.763Z,10.94
2018-11-05T16:50:22.033Z,10.72
2018-11-05T16:53:05.627Z,10.65
2018-11-05T16:55:47.853Z,10.71
2018-11-05T16:58:30.599Z,10.78
2018-11-05T17:01:13.071Z,10.63
2018-11-05T17:03:55.285Z,10.65
2018-11-05T17:06:37.217Z,10.77
2018-11-05T17:09:19.215Z,10.74
2018-11-05T17:12:01.813Z,10.68
2018-11-05T17:14:44.120Z,10.57
2018-11-05T17:17:26.348Z,10.64
2018-11-05T17:20:11.658Z,10.56
2018-11-05T17:22:53.749Z,10.76
2018-11-05T17:25:36.016Z,10.89
2018-11-05T17:28:18.912Z,10.85
2018-11-05T17:31:00.719Z,10.60
2018-11-05T17:33:42.267Z,10.62
2018-11-05T17:36:25.390Z,10.71
2018-11-05T17:39:10.637Z,10.51
2018-11-05T17:41:52.490Z,10.49
2018-11-05T17:44:35.422Z,10.35
2018-11-05T17:47:17.285Z,10.46
2018-11-05T17:49:59.426Z,10.24
2018-11-05T17:52:41.387Z,10.33
2018-11-05T17:55:23.973Z,10.19
2018-11-05T17:58:06.637Z,10.17
2018-11-05T18:00:49.249Z,10.10
2018-11-05T18:03:30.729Z,9.81
2018-11-05T18:06:12.574Z,10.01
2018-11-05T18:08:55.332Z,10.01
2018-11-05T18:11:37.604Z,9.80
2018-11-05T18:14:19.968Z,9.73
2018-11-05T18:17:03.481Z,9.63
2018-11-05T18:19:46.093Z,9.65
2018-11-05T18:22:28.417Z,9.76
2018-11-05T18:25:15.843Z,9.59
2018-11-05T18:27:58.549Z,9.38
2018-11-05T18:30:40.621Z,9.27
2018-11-05T18:33:22.324Z,9.40
2018-11-05T18:36:04.718Z,9.46
2018-11-05T18:38:46.821Z,9.28
2018-11-05T18:41:28.346Z,9.10
2018-11-05T18:44:10.345Z,9.07
2018-11-05T18:46:52.427Z,8.98
2018-11-05T18:49:35.563Z,8.83
2018-11-05T18:52:17.246Z,8.82
2018-11-05T18:54:58.426Z,8.76
2018-11-05T18:57:40.229Z,8.62
2018-11-05T19:00:25.030Z,8.63
2018-11-05T19:03:11.937Z,8.51
2018-11-05T19:05:57.489Z,8.53
2018-11-05T19:08:40.514Z,8.64
2018-11-05T19:11:22.585Z,8.59
2018-11-05T19:14:05.052Z,8.60
2018-11-05T19:16:47.614Z,8.66
2018-11-05T19:19:30.625Z,8.66
2018-11-05T19:22:12.288Z,8.53
2018-11-05T19:24:53.825Z,8.36
2018-11-05T19:27:36.126Z,8.43
2018-11-05T19:30:20.351Z,8.56
2018-11-05T19:33:02.354Z,8.59
2018-11-05T19:35:44.769Z,8.62
2018-11-05T19:38:27.582Z,8.69
2018-11-05T19:41:09.782Z,8.71
2018-11-05T19:43:51.883Z,8.64
2018-11-05T19:46:35.952Z,8.82
2018-11-05T19:49:18.198Z,8.89
2018-11-05T19:52:00.335Z,9.04
2018-11-05T19:54:42.287Z,8.99
2018-11-05T19:57:24.423Z,9.04
2018-11-05T20:00:18.031Z,9.04
2018-11-05T20:03:02.260Z,9.09
2018-11-05T20:05:44.292Z,9.20
2018-11-05T20:08:26.247Z,9.22
2018-11-05T20:11:08.452Z,9.24
2018-11-05T20:13:50.459Z,9.30
2018-11-05T20:16:32.881Z,9.31
2018-11-05T20:19:15.731Z,9.39
2018-11-05T20:21:58.002Z,9.48
2018-11-05T20:24:40.069Z,9.48
2018-11-05T20:27:21.792Z,9.43
2018-11-05T20:30:04.469Z,9.33
2018-11-05T20:32:48.115Z,9.39
2018-11-05T20:35:30.124Z,9.46
2018-11-05T20:38:14.712Z,9.50
2018-11-05T20:40:56.773Z,9.49
2018-11-05T20:43:38.145Z,9.56
2018-11-05T20:46:20.054Z,9.52
2018-11-05T20:49:02.383Z,9.54
2018-11-05T20:51:44.852Z,9.52
2018-11-05T20:54:27.717Z,9.52
2018-11-05T20:57:09.468Z,9.58
2018-11-05T20:59:51.354Z,9.67
2018-11-05T21:02:34.319Z,9.74
2018-11-05T21:05:15.914Z,9.58
2018-11-05T21:07:57.405Z,9.44
2018-11-05T21:10:41.523Z,9.47
2018-11-05T21:13:23.642Z,9.47
2018-11-05T21:16:05.654Z,9.63
2018-11-05T21:18:48.131Z,9.62
2018-11-05T21:21:31.117Z,9.37
2018-11-05T21:24:13.141Z,9.46
2018-11-05T21:26:55.717Z,9.65
2018-11-05T21:29:37.557Z,9.81
2018-11-05T21:32:19.773Z,9.89
2018-11-05T21:35:02.885Z,9.51
2018-11-05T21:37:44.767Z,9.51
2018-11-05T21:40:26.855Z,9.43
2018-11-05T21:43:09.163Z,9.15
2018-11-05T21:45:50.894Z,9.06
2018-11-05T21:48:47.553Z,9.03
2018-11-05T21:51:32.481Z,8.87
2018-11-05T21:54:14.282Z,8.98
2018-11-05T21:56:56.573Z,9.13
2018-11-05T21:59:38.562Z,8.99
2018-11-05T22:02:21.005Z,8.73
2018-11-05T22:05:03.023Z,8.67
2018-11-05T22:07:46.312Z,8.58
2018-11-05T22:10:28.414Z,8.59
2018-11-05T22:13:10.525Z,8.68
2018-11-05T22:16:18.725Z,8.77
2018-11-05T22:19:00.172Z,8.69
2018-11-05T22:21:41.902Z,8.79
2018-11-05T22:24:24.515Z,8.73
2018-11-05T22:27:07.230Z,8.78
2018-11-05T22:29:49.127Z,8.80
2018-11-05T22:32:31.453Z,8.78
2018-11-05T22:35:13.633Z,8.71
2018-11-05T22:37:55.986Z,8.66
2018-11-05T22:40:38.529Z,8.67
2018-11-05T22:43:20.720Z,8.92
2018-11-05T22:46:02.875Z,9.04
2018-11-05T22:48:45.503Z,8.90
2018-11-05T22:51:27.688Z,8.72
2018-11-05T22:54:09.942Z,8.70
2018-11-05T22:56:52.793Z,8.66
2018-11-05T22:59:34.802Z,8.65
2018-11-05T23:02:17.933Z,8.71
2018-11-05T23:05:01.129Z,8.79
2018-11-05T23:07:43.201Z,8.53
2018-11-05T23:10:25.120Z,8.59
2018-11-05T23:13:07.828Z,8.46
2018-11-05T23:15:50.380Z,8.34
2018-11-05T23:18:32.350Z,8.33
2018-11-05T23:21:15.053Z,8.35
2018-11-05T23:23:57.293Z,8.31
2018-11-05T23:26:39.889Z,8.34
2018-11-05T23:29:22.696Z,8.30
2018-11-05T23:32:04.542Z,8.23
2018-11-05T23:34:46.097Z,8.19
2018-11-05T23:37:28.612Z,8.36
2018-11-05T23:43:49.055Z,8.36
2018-11-05T23:46:31.613Z,8.47
2018-11-05T23:49:14.283Z,8.46
2018-11-05T23:51:59.289Z,8.43
2018-11-05T23:54:43.152Z,8.51
2018-11-05T23:57:26.013Z,8.57
